Time;durP1;ratioP1;P1;durP2;ratioP2;P2;SDS_P1;SDS_P2;PMS_P1;PMS_P2;Temp;Humidity;BMP_temperature;BMP_pressure;BME280_temperature;BME280_humidity;BME280_pressure;Samples;Min_cycle;Max_cycle;Signal;HPM_P1;HPM_P2
2023/08/28 00:01:03;;;;;;;17.02;9.68;;;;;;;14.90;96.61;98819.94;5095476;27;20050;-74
2023/08/28 00:03:29;;;;;;;13.32;8.40;;;;;;;14.87;96.23;98825.66;5108548;27;20046;-76
2023/08/28 00:05:55;;;;;;;13.82;8.75;;;;;;;14.90;95.64;98819.94;5096780;27;20042;-76
2023/08/28 00:08:20;;;;;;;11.50;7.78;;;;;;;14.88;94.97;98818.44;5115838;27;20054;-74
2023/08/28 00:10:45;;;;;;;12.63;8.52;;;;;;;14.93;94.21;98817.94;5097848;27;20049;-75
2023/08/28 00:13:10;;;;;;;9.30;7.50;;;;;;;15.00;93.28;98835.13;5116132;27;20030;-75
2023/08/28 00:15:35;;;;;;;14.63;7.70;;;;;;;15.05;92.68;98803.25;5115584;27;20661;-72
2023/08/28 00:18:01;;;;;;;14.82;8.45;;;;;;;15.09;92.42;98801.97;5080186;27;20038;-74
2023/08/28 00:20:26;;;;;;;12.55;8.23;;;;;;;15.12;92.31;98807.84;5115578;27;20374;-74
2023/08/28 00:22:51;;;;;;;12.75;7.90;;;;;;;15.16;91.76;98794.94;5063524;27;20500;-72
2023/08/28 00:25:16;;;;;;;13.68;8.23;;;;;;;15.20;92.09;98799.84;5115084;27;20046;-73
2023/08/28 00:27:42;;;;;;;11.23;8.27;;;;;;;15.23;91.34;98794.16;5096274;27;20043;-73
2023/08/28 00:30:08;;;;;;;14.75;9.30;;;;;;;15.29;91.22;98803.41;5096452;27;20050;-73
2023/08/28 00:32:37;;;;;;;11.68;8.05;;;;;;;15.29;91.26;98800.72;5116259;27;20042;-75
2023/08/28 00:35:05;;;;;;;10.05;8.13;;;;;;;15.30;91.73;98799.72;5116955;27;20378;-77
2023/08/28 00:37:30;;;;;;;12.65;8.45;;;;;;;15.26;91.48;98798.34;5096518;27;20042;-76
2023/08/28 00:39:55;;;;;;;12.40;8.75;;;;;;;15.19;91.34;98808.06;5115762;27;20043;-76
2023/08/28 00:42:21;;;;;;;12.88;8.68;;;;;;;15.12;92.00;98807.03;5097030;27;20047;-74
2023/08/28 00:44:46;;;;;;;12.70;9.05;;;;;;;15.03;92.10;98803.41;5097297;27;20420;-75
2023/08/28 00:47:13;;;;;;;14.57;9.30;;;;;;;14.93;92.57;98796.47;5114691;27;20038;-74
2023/08/28 00:49:39;;;;;;;14.38;10.10;;;;;;;14.84;92.68;98788.38;5073836;27;20043;-75
2023/08/28 00:52:05;;;;;;;15.82;10.52;;;;;;;14.75;92.85;98802.75;5069774;27;20061;-75
2023/08/28 00:54:31;;;;;;;14.73;9.10;;;;;;;14.67;93.21;98796.47;5079598;27;20424;-75
2023/08/28 00:56:58;;;;;;;12.82;9.63;;;;;;;14.60;93.27;98793.56;5094131;27;20035;-74
2023/08/28 00:59:27;;;;;;;14.00;10.02;;;;;;;14.55;93.77;98803.09;5075715;27;20039;-76
2023/08/28 01:01:53;;;;;;;13.52;9.15;;;;;;;14.49;93.99;98815.25;5071230;27;20054;-75
2023/08/28 01:04:18;;;;;;;15.68;9.43;;;;;;;14.46;94.06;98788.75;5057001;27;20046;-77
2023/08/28 01:07:05;;;;;;;14.27;9.82;;;;;;;14.49;94.41;98794.66;5075583;28;20047;-76
2023/08/28 01:09:45;;;;;;;13.85;9.68;;;;;;;14.40;94.51;98794.75;5094993;27;20772;-73
2023/08/28 01:12:48;;;;;;;12.43;9.55;;;;;;;14.42;94.93;98795.44;5096797;27;20061;-70
2023/08/28 01:15:23;;;;;;;13.30;8.60;;;;;;;14.30;95.12;98794.78;5095446;27;20050;-71
2023/08/28 01:17:55;;;;;;;16.83;9.65;;;;;;;14.26;95.33;98797.91;5066619;27;20042;-71
2023/08/28 01:20:22;;;;;;;15.05;9.73;;;;;;;14.18;95.48;98794.19;5096873;27;20065;-70
2023/08/28 01:22:56;;;;;;;11.63;9.90;;;;;;;14.17;96.02;98795.16;5104247;27;20051;-70
2023/08/28 01:25:22;;;;;;;;;;;;;;;14.25;96.21;98806.97;5077299;28;20047;-72
2023/08/28 01:27:47;;;;;;;16.20;10.45;;;;;;;14.09;95.99;98797.78;5059849;28;19915;-69
2023/08/28 01:30:15;;;;;;;10.70;8.88;;;;;;;14.03;95.76;98829.69;5081789;28;20035;-68
2023/08/28 01:32:42;;;;;;;15.88;10.45;;;;;;;13.96;96.23;98813.38;5112006;27;20041;-67
2023/08/28 01:35:12;;;;;;;13.65;9.55;;;;;;;13.91;96.45;98804.94;5096799;27;20042;-67
2023/08/28 01:38:00;;;;;;;16.25;10.18;;;;;;;13.96;97.33;98818.75;5066601;27;20519;-68
2023/08/28 01:40:40;;;;;;;13.90;9.50;;;;;;;13.85;97.29;98824.31;5068023;27;20038;-68
2023/08/28 01:43:12;;;;;;;15.50;9.68;;;;;;;13.82;97.35;98821.94;5060036;27;20050;-67
2023/08/28 01:45:38;;;;;;;15.07;9.88;;;;;;;13.76;97.88;98817.19;5094538;27;20047;-66
2023/08/28 01:48:04;;;;;;;14.85;9.75;;;;;;;13.72;97.93;98821.16;5096876;27;20046;-69
2023/08/28 01:50:29;;;;;;;14.38;9.57;;;;;;;13.69;98.58;98826.78;5115215;27;20054;-68
2023/08/28 01:52:55;;;;;;;14.95;9.27;;;;;;;13.65;98.51;98825.41;5062352;27;20058;-68
2023/08/28 01:55:54;;;;;;;15.00;9.93;;;;;;;13.70;99.13;98876.69;5079426;27;20050;-67
2023/08/28 01:58:19;;;;;;;12.73;9.02;;;;;;;13.62;99.37;98847.13;5082270;27;20412;-68
2023/08/28 02:00:44;;;;;;;13.77;9.75;;;;;;;13.61;98.71;98840.09;5109691;27;20047;-69
2023/08/28 02:03:10;;;;;;;14.82;9.57;;;;;;;13.61;99.00;98842.78;5115359;27;20035;-72
2023/08/28 02:05:36;;;;;;;13.98;8.95;;;;;;;13.59;99.90;98834.88;5095358;27;20047;-73
2023/08/28 02:08:02;;;;;;;12.95;9.95;;;;;;;13.57;100.00;98860.97;5078051;28;20055;-72
2023/08/28 02:10:28;;;;;;;18.38;10.43;;;;;;;13.59;100.00;98844.75;5077327;28;20128;-70
2023/08/28 02:12:57;;;;;;;30.10;23.00;;;;;;;13.59;100.00;98839.38;5092775;28;20035;-69
2023/08/28 02:15:25;;;;;;;41.08;34.97;;;;;;;13.60;100.00;98846.44;5095628;27;20050;-69
2023/08/28 02:17:54;;;;;;;32.35;23.40;;;;;;;13.60;100.00;98855.31;5096927;27;20047;-68
2023/08/28 02:20:19;;;;;;;42.58;35.60;;;;;;;13.61;100.00;98856.16;5093976;27;20037;-68
2023/08/28 02:22:45;;;;;;;41.90;31.58;;;;;;;13.61;100.00;98858.84;5079632;27;20046;-70
2023/08/28 02:25:10;;;;;;;27.10;19.42;;;;;;;13.62;100.00;98853.34;5095900;27;20046;-70
2023/08/28 02:27:35;;;;;;;27.77;19.67;;;;;;;13.63;100.00;98859.53;5097628;27;20508;-70
2023/08/28 02:30:00;;;;;;;30.80;23.92;;;;;;;13.64;100.00;98869.25;5095824;27;20050;-71
2023/08/28 02:32:25;;;;;;;32.85;24.42;;;;;;;13.62;100.00;98880.13;5095624;27;20047;-71
2023/08/28 02:34:51;;;;;;;33.58;27.50;;;;;;;13.62;100.00;98880.13;5096289;27;20039;-71
2023/08/28 02:37:17;;;;;;;32.85;27.08;;;;;;;13.64;100.00;98878.16;5097659;27;20046;-71
2023/08/28 02:39:42;;;;;;;33.55;27.42;;;;;;;13.65;100.00;98879.00;5097213;27;20039;-71
2023/08/28 02:42:07;;;;;;;37.45;29.35;;;;;;;13.67;100.00;98871.63;5079086;27;20512;-70
2023/08/28 02:44:32;;;;;;;38.15;30.33;;;;;;;13.65;100.00;98885.19;5095948;27;20035;-70
2023/08/28 02:46:57;;;;;;;38.72;31.55;;;;;;;13.69;100.00;98872.31;5097474;27;20042;-70
2023/08/28 02:49:23;;;;;;;38.72;32.40;;;;;;;13.68;100.00;98879.50;5096895;27;20043;-70
2023/08/28 02:51:49;;;;;;;47.40;37.67;;;;;;;13.72;100.00;98869.34;5095868;27;20050;-70
2023/08/28 02:54:14;;;;;;;63.85;49.90;;;;;;;13.74;100.00;98883.44;5078427;27;20415;-71
2023/08/28 02:56:40;;;;;;;49.80;40.03;;;;;;;13.79;100.00;98887.34;5097855;27;20046;-70
2023/08/28 02:59:06;;;;;;;45.97;36.20;;;;;;;13.86;100.00;98887.63;5096499;27;20039;-71
2023/08/28 03:01:34;;;;;;;43.00;33.53;;;;;;;13.97;100.00;98883.91;5078424;27;20051;-70
2023/08/28 03:04:06;;;;;;;44.42;35.90;;;;;;;14.12;100.00;98887.75;5078906;27;20049;-71
2023/08/28 03:06:38;;;;;;;47.22;35.45;;;;;;;14.23;99.92;98895.56;5095470;27;20051;-70
2023/08/28 03:09:07;;;;;;;51.65;37.75;;;;;;;14.37;98.75;98870.09;5096039;27;20051;-70
2023/08/28 03:11:33;;;;;;;46.80;34.47;;;;;;;14.51;98.18;98891.06;5097146;27;20043;-70
2023/08/28 03:13:58;;;;;;;43.92;31.80;;;;;;;14.65;96.89;98879.78;5096133;27;20503;-70
2023/08/28 03:16:23;;;;;;;42.25;33.55;;;;;;;14.81;96.10;98885.28;5096654;27;20046;-71
2023/08/28 03:18:49;;;;;;;33.70;24.92;;;;;;;14.97;94.92;98879.22;5078234;27;20047;-70
2023/08/28 03:21:14;;;;;;;32.60;26.33;;;;;;;15.15;93.56;98887.22;5095927;27;20050;-71
2023/08/28 03:23:39;;;;;;;33.33;25.85;;;;;;;15.32;92.32;98889.03;5095696;27;20047;-71
2023/08/28 03:26:06;;;;;;;29.45;24.75;;;;;;;15.47;90.99;98892.81;5078088;27;20047;-71
2023/08/28 03:28:31;;;;;;;34.75;22.40;;;;;;;15.64;90.05;98892.94;5095663;27;20497;-70
2023/08/28 03:30:57;;;;;;;27.40;22.67;;;;;;;15.77;89.11;98904.09;5078683;27;20060;-70
2023/08/28 03:33:24;;;;;;;27.70;21.38;;;;;;;15.91;88.21;98885.50;5095622;27;20058;-70
2023/08/28 03:35:49;;;;;;;26.17;20.73;;;;;;;16.06;87.47;98892.94;5096766;27;20875;-70
2023/08/28 03:38:15;;;;;;;27.80;20.27;;;;;;;16.13;86.69;98889.47;5095909;27;20129;-70
2023/08/28 03:40:41;;;;;;;27.85;19.20;;;;;;;16.22;86.14;98893.03;5095540;27;20039;-71
2023/08/28 03:43:06;;;;;;;25.35;20.00;;;;;;;16.30;85.86;98891.19;5078224;27;20059;-71
2023/08/28 03:45:31;;;;;;;26.67;20.48;;;;;;;16.42;85.39;98921.31;5095370;27;20043;-71
2023/08/28 03:47:56;;;;;;;24.52;18.75;;;;;;;16.59;85.07;98889.91;5078015;27;20406;-70
2023/08/28 03:50:22;;;;;;;29.13;18.92;;;;;;;16.76;84.70;98888.94;5096502;27;20051;-71
2023/08/28 03:52:48;;;;;;;22.30;17.13;;;;;;;16.95;83.64;98901.22;5095726;27;20043;-71
2023/08/28 03:55:13;;;;;;;17.00;13.02;;;;;;;17.16;82.58;98887.25;5095425;27;20043;-71
2023/08/28 03:57:38;;;;;;;20.52;14.40;;;;;;;17.37;81.32;98884.88;5096297;27;20035;-70
2023/08/28 04:00:10;;;;;;;19.08;14.82;;;;;;;17.54;80.21;98891.06;5095103;27;20500;-70
2023/08/28 04:02:40;;;;;;;19.60;14.05;;;;;;;17.72;78.95;98891.72;5078257;27;20058;-71
2023/08/28 04:05:06;;;;;;;19.63;12.35;;;;;;;17.81;78.31;98898.78;5077126;27;20051;-73
2023/08/28 04:07:32;;;;;;;15.02;12.23;;;;;;;17.91;76.44;98880.53;5108664;27;20077;-71
2023/08/28 04:10:00;;;;;;;18.35;13.88;;;;;;;18.02;76.19;98888.25;5098216;27;20043;-70
2023/08/28 04:12:25;;;;;;;17.27;11.30;;;;;;;18.06;75.29;98886.03;5098285;27;20046;-70
2023/08/28 04:14:50;;;;;;;17.17;12.57;;;;;;;18.12;74.82;98888.03;5098147;27;20046;-70
2023/08/28 04:17:16;;;;;;;17.02;11.70;;;;;;;18.14;74.86;98878.75;5117037;27;20436;-70
2023/08/28 04:19:41;;;;;;;20.13;10.77;;;;;;;18.17;74.07;98882.97;5098227;27;20039;-73
2023/08/28 04:22:06;;;;;;;16.85;10.18;;;;;;;18.22;73.74;98885.97;5097973;27;20038;-71
2023/08/28 04:24:32;;;;;;;15.55;9.70;;;;;;;18.32;73.05;98881.19;5097954;27;20046;-72
2023/08/28 04:26:57;;;;;;;16.95;9.40;;;;;;;18.43;72.67;98871.84;5097900;27;20054;-71
2023/08/28 04:29:22;;;;;;;13.10;8.77;;;;;;;18.55;71.60;98862.31;5098082;27;20394;-71
2023/08/28 04:31:47;;;;;;;11.93;7.93;;;;;;;18.73;70.24;98870.16;5097940;27;20042;-72
2023/08/28 04:34:14;;;;;;;10.38;8.32;;;;;;;18.90;68.96;98852.78;5080150;27;20047;-72
2023/08/28 04:36:39;;;;;;;12.02;8.27;;;;;;;19.11;67.99;98844.00;5097200;27;20046;-72
2023/08/28 04:39:05;;;;;;;17.45;9.48;;;;;;;19.34;66.67;98855.59;5080565;27;20060;-71
2023/08/28 04:41:32;;;;;;;13.63;8.40;;;;;;;19.55;65.06;98857.59;5087717;27;20053;-71
2023/08/28 04:43:58;;;;;;;13.45;8.50;;;;;;;19.70;64.03;98860.31;5108914;27;20042;-74
2023/08/28 04:46:25;;;;;;;13.52;8.52;;;;;;;19.76;63.07;98870.34;5127319;27;20035;-72
2023/08/28 04:48:50;;;;;;;10.38;7.35;;;;;;;19.80;62.82;98853.59;5101614;27;20047;-72
2023/08/28 04:51:15;;;;;;;12.43;7.55;;;;;;;19.88;62.58;98853.47;5101551;27;20198;-72
2023/08/28 04:53:40;;;;;;;14.38;8.43;;;;;;;19.98;62.19;98868.59;5102027;27;20525;-72
2023/08/28 04:56:06;;;;;;;14.05;7.90;;;;;;;20.03;61.59;98860.75;5081221;27;20500;-73
2023/08/28 04:58:31;;;;;;;13.40;8.68;;;;;;;20.07;61.08;98865.59;5080787;27;20046;-72
2023/08/28 05:00:56;;;;;;;13.32;8.05;;;;;;;20.14;60.74;98857.56;5097734;27;20038;-71
2023/08/28 05:03:22;;;;;;;12.65;8.13;;;;;;;20.18;60.44;98859.69;5097523;27;20042;-71
2023/08/28 05:05:47;;;;;;;10.27;7.72;;;;;;;20.30;60.32;98863.59;5097607;27;20042;-72
2023/08/28 05:08:14;;;;;;;16.88;10.23;;;;;;;20.49;59.77;98864.88;5079662;27;20042;-70
2023/08/28 05:10:39;;;;;;;11.13;8.27;;;;;;;20.85;59.43;98866.69;5097440;27;20771;-70
2023/08/28 05:13:04;;;;;;;13.45;7.72;;;;;;;21.28;59.14;98862.09;5097444;27;20057;-71
2023/08/28 05:15:29;;;;;;;12.38;8.75;;;;;;;21.68;58.12;98872.16;5093923;28;20047;-71
2023/08/28 05:17:55;;;;;;;12.40;7.95;;;;;;;22.07;56.56;98862.59;5093722;28;20070;-71
2023/08/28 05:20:21;;;;;;;13.30;9.13;;;;;;;22.56;55.91;98884.09;5059517;28;20043;-71
2023/08/28 05:22:47;;;;;;;16.50;9.07;;;;;;;22.83;54.72;98867.84;5093529;28;20047;-71
2023/08/28 05:25:12;;;;;;;12.38;9.18;;;;;;;22.79;54.39;98862.03;5076584;28;20043;-70
2023/08/28 05:27:37;;;;;;;11.65;8.02;;;;;;;22.85;54.11;98860.34;5075818;28;20058;-69
2023/08/28 05:30:03;;;;;;;9.73;7.55;;;;;;;23.09;53.66;98857.84;5093921;28;20039;-70
2023/08/28 05:32:30;;;;;;;10.57;7.53;;;;;;;23.58;51.52;98810.34;5093552;28;20045;-71
2023/08/28 05:34:58;;;;;;;8.45;6.68;;;;;;;24.06;48.97;98861.69;5093440;27;20047;-71
2023/08/28 05:37:25;;;;;;;10.70;6.40;;;;;;;24.76;47.47;98857.19;5093608;27;20073;-70
2023/08/28 05:39:50;;;;;;;10.30;6.78;;;;;;;25.31;46.27;98850.91;5093491;28;20050;-70
2023/08/28 05:42:15;;;;;;;49.47;24.40;;;;;;;25.76;45.23;98855.31;5075510;28;20054;-71
2023/08/28 05:44:42;;;;;;;12.93;8.30;;;;;;;25.64;44.49;98845.16;5076630;28;20050;-73
2023/08/28 05:47:07;;;;;;;9.70;7.28;;;;;;;25.52;44.18;98849.66;5093295;27;20039;-73
2023/08/28 05:49:33;;;;;;;15.77;8.35;;;;;;;25.57;44.36;98858.00;5077895;27;20046;-72
2023/08/28 05:51:58;;;;;;;10.07;6.43;;;;;;;25.86;44.32;98844.72;5097776;27;20050;-70
2023/08/28 05:54:24;;;;;;;8.82;5.63;;;;;;;26.49;41.88;98867.09;5097661;27;20050;-70
2023/08/28 05:56:49;;;;;;;10.07;6.13;;;;;;;27.41;39.72;98842.97;5097523;27;20731;-70
2023/08/28 05:59:14;;;;;;;13.25;6.60;;;;;;;28.37;38.53;98841.56;5097523;27;20047;-70
2023/08/28 06:01:39;;;;;;;10.15;6.53;;;;;;;29.15;36.54;98844.41;5097440;27;20061;-71
2023/08/28 06:04:05;;;;;;;16.77;7.13;;;;;;;29.78;35.16;98840.47;5097706;27;20043;-74
2023/08/28 06:06:31;;;;;;;8.18;6.10;;;;;;;30.41;33.72;98850.09;5097350;27;20062;-71
2023/08/28 06:08:57;;;;;;;13.65;6.55;;;;;;;30.93;32.58;98839.41;5079119;27;20412;-71
2023/08/28 06:11:23;;;;;;;8.88;5.97;;;;;;;31.26;31.50;98838.38;5097037;27;20050;-72
2023/08/28 06:13:48;;;;;;;11.45;5.70;;;;;;;31.66;30.45;98826.81;5097216;27;20404;-71
2023/08/28 06:16:13;;;;;;;9.43;6.05;;;;;;;31.86;30.17;98826.09;5097221;27;20051;-71
2023/08/28 06:18:38;;;;;;;9.95;6.38;;;;;;;31.63;29.99;98826.47;5097153;27;20049;-71
2023/08/28 06:21:03;;;;;;;11.50;6.85;;;;;;;31.46;30.16;98832.16;5098299;27;20046;-71
2023/08/28 06:23:29;;;;;;;6.90;5.20;;;;;;;31.62;29.89;98831.16;5097233;27;20039;-72
2023/08/28 06:25:55;;;;;;;6.43;5.20;;;;;;;32.09;29.30;98833.94;5080514;27;20054;-71
2023/08/28 06:28:20;;;;;;;7.05;5.03;;;;;;;32.71;28.02;98838.63;5100489;27;20039;-72
2023/08/28 06:30:50;;;;;;;8.15;5.00;;;;;;;33.45;27.31;98837.31;5097702;27;20497;-71
2023/08/28 06:33:15;;;;;;;8.00;5.20;;;;;;;34.16;26.90;98842.69;5097097;27;20054;-71
2023/08/28 06:35:40;;;;;;;5.68;4.88;;;;;;;34.82;25.41;98840.47;5113005;27;20041;-71
2023/08/28 06:38:05;;;;;;;8.88;5.72;;;;;;;35.50;24.69;98832.19;5118260;27;20034;-71
2023/08/28 06:40:30;;;;;;;6.53;4.85;;;;;;;36.04;23.54;98822.75;5099466;27;20039;-70
2023/08/28 06:42:56;;;;;;;6.47;5.10;;;;;;;36.47;23.28;98818.06;5099421;27;20053;-71
2023/08/28 06:45:21;;;;;;;9.85;5.45;;;;;;;36.54;22.92;98842.72;5119512;27;20060;-70
2023/08/28 06:47:46;;;;;;;10.85;8.73;;;;;;;36.70;22.74;98816.38;5121247;27;20400;-70
2023/08/28 06:50:11;;;;;;;8.70;6.22;;;;;;;37.08;22.48;98825.53;5099545;27;20042;-69
2023/08/28 06:52:36;;;;;;;7.32;4.88;;;;;;;37.59;21.40;98819.94;5118076;27;20054;-71
2023/08/28 06:55:02;;;;;;;6.43;5.72;;;;;;;38.42;20.95;98821.66;5118871;27;20050;-68
2023/08/28 06:57:30;;;;;;;8.93;5.28;;;;;;;38.96;19.91;98841.34;5099791;27;20047;-69
2023/08/28 06:59:55;;;;;;;7.15;5.15;;;;;;;39.47;19.58;98852.16;5099659;27;20420;-69
2023/08/28 07:02:20;;;;;;;6.72;4.95;;;;;;;39.86;19.46;98821.50;5119779;27;20540;-68
2023/08/28 07:04:46;;;;;;;5.78;5.00;;;;;;;40.15;19.03;98850.88;5099488;27;20856;-71
2023/08/28 07:07:15;;;;;;;6.32;5.03;;;;;;;40.37;18.57;98834.03;5099323;27;20081;-68
2023/08/28 07:09:40;;;;;;;6.75;4.78;;;;;;;40.48;18.34;98835.38;5118567;27;20054;-69
2023/08/28 07:12:06;;;;;;;7.85;5.03;;;;;;;40.32;17.70;98833.34;5118405;27;20046;-69
2023/08/28 07:14:31;;;;;;;5.35;4.85;;;;;;;40.46;17.74;98826.50;5118048;27;20377;-70
2023/08/28 07:16:56;;;;;;;5.95;5.35;;;;;;;40.21;17.43;98828.03;5100687;27;20042;-70
2023/08/28 07:19:22;;;;;;;7.53;5.63;;;;;;;39.86;17.54;98837.44;5100633;27;20039;-71
2023/08/28 07:21:47;;;;;;;6.75;5.78;;;;;;;39.78;17.71;98819.47;5065365;27;20039;-70
2023/08/28 07:24:12;;;;;;;7.30;5.57;;;;;;;39.81;17.68;98818.03;5119235;27;20047;-69
2023/08/28 07:26:37;;;;;;;5.97;5.47;;;;;;;39.85;17.52;98819.88;5100249;27;20497;-70
2023/08/28 07:29:03;;;;;;;8.38;5.97;;;;;;;39.72;17.53;98826.38;5118041;27;20046;-69
2023/08/28 07:31:28;;;;;;;7.13;5.53;;;;;;;39.91;17.31;98821.38;5081827;27;20035;-69
2023/08/28 07:33:53;;;;;;;7.00;5.85;;;;;;;39.54;17.35;98819.84;5117133;27;20043;-69
2023/08/28 07:36:22;;;;;;;7.10;5.95;;;;;;;39.30;17.00;98830.50;5098705;27;20053;-70
2023/08/28 07:38:47;;;;;;;8.27;5.57;;;;;;;39.02;17.54;98817.84;5081922;27;20047;-70
2023/08/28 07:41:16;;;;;;;9.50;6.55;;;;;;;38.94;18.06;98813.00;5116945;27;20026;-70
2023/08/28 07:43:42;;;;;;;8.48;5.90;;;;;;;39.04;18.00;98840.66;5117148;27;20103;-71
2023/08/28 07:46:07;;;;;;;9.32;5.35;;;;;;;38.29;18.59;98822.50;5097510;27;20057;-72
2023/08/28 07:48:33;;;;;;;7.68;5.60;;;;;;;38.52;19.06;98831.75;5116973;27;20049;-70
2023/08/28 07:50:58;;;;;;;11.85;6.53;;;;;;;37.37;19.36;98814.22;5098678;27;20855;-71
2023/08/28 07:53:23;;;;;;;6.75;5.65;;;;;;;37.19;19.40;98823.44;5116971;27;20038;-71
2023/08/28 07:55:48;;;;;;;9.20;5.82;;;;;;;37.20;19.39;98834.25;5116774;27;20049;-72
2023/08/28 07:58:14;;;;;;;8.02;5.40;;;;;;;36.00;20.06;98811.44;5098377;27;20042;-69
2023/08/28 08:00:40;;;;;;;6.55;5.50;;;;;;;34.68;21.41;98820.03;5116528;27;20660;-69
2023/08/28 08:03:05;;;;;;;10.13;5.43;;;;;;;33.04;22.88;98803.31;5116610;27;20039;-69
2023/08/28 08:05:31;;;;;;;8.02;5.15;;;;;;;31.42;24.74;98809.00;5097872;27;20046;-70
2023/08/28 08:07:57;;;;;;;12.63;5.20;;;;;;;30.03;25.84;98817.16;5096948;27;20527;-69
2023/08/28 08:10:22;;;;;;;6.85;5.50;;;;;;;30.29;26.89;98816.41;5116440;27;20488;-68
2023/08/28 08:12:47;;;;;;;6.93;4.97;;;;;;;32.55;25.26;98817.56;5096573;27;20039;-69
2023/08/28 08:15:13;;;;;;;7.78;5.28;;;;;;;35.26;22.27;98804.41;5098116;27;20049;-70
2023/08/28 08:17:38;;;;;;;5.70;5.05;;;;;;;37.48;20.75;98809.28;5116377;27;20034;-70
2023/08/28 08:20:09;;;;;;;8.18;5.78;;;;;;;39.53;19.14;98781.09;5097761;27;20057;-70
2023/08/28 08:22:35;;;;;;;7.65;6.45;;;;;;;40.42;17.96;98805.94;5080641;27;20046;-70
2023/08/28 08:25:00;;;;;;;8.80;6.20;;;;;;;41.02;17.49;98818.34;5116271;27;20508;-70
2023/08/28 08:27:25;;;;;;;8.05;6.05;;;;;;;40.20;17.84;98803.22;5088557;27;20054;-68
2023/08/28 08:29:50;;;;;;;9.27;6.13;;;;;;;39.56;18.15;98816.75;5115996;27;20522;-70
2023/08/28 08:32:16;;;;;;;7.32;6.60;;;;;;;40.24;17.90;98827.41;5097867;27;20047;-71
2023/08/28 08:34:41;;;;;;;7.10;6.35;;;;;;;40.29;17.77;98839.63;5097686;27;20050;-70
2023/08/28 08:37:06;;;;;;;7.22;6.00;;;;;;;38.95;18.53;98815.44;5115957;27;20407;-70
2023/08/28 08:39:31;;;;;;;6.80;6.00;;;;;;;38.27;19.32;98819.19;5096937;27;20638;-69
2023/08/28 08:41:56;;;;;;;7.07;6.38;;;;;;;39.45;18.54;98815.38;5097331;27;20039;-70
2023/08/28 08:44:22;;;;;;;7.10;6.50;;;;;;;41.61;16.82;98808.25;5097794;27;20046;-70
2023/08/28 08:46:49;;;;;;;7.15;6.18;;;;;;;41.82;16.06;98819.53;5115970;27;20042;-70
2023/08/28 08:49:18;;;;;;;7.55;6.85;;;;;;;39.85;17.31;98819.88;5115915;27;20485;-70
2023/08/28 08:51:45;;;;;;;10.63;6.57;;;;;;;38.95;18.32;98817.41;5095468;27;20046;-70
2023/08/28 08:54:20;;;;;;;8.63;7.00;;;;;;;39.84;17.01;98806.22;5095224;27;20041;-70
2023/08/28 08:56:50;;;;;;;8.05;6.70;;;;;;;40.59;16.80;98794.81;5077722;27;20047;-70
2023/08/28 08:59:15;;;;;;;7.90;6.55;;;;;;;42.00;16.37;98787.53;5076844;27;20054;-70
2023/08/28 09:01:41;;;;;;;8.52;7.53;;;;;;;43.50;15.49;98811.00;5095557;27;20043;-69
2023/08/28 09:04:08;;;;;;;8.18;7.43;;;;;;;44.89;14.52;98783.53;5077426;28;20047;-70
2023/08/28 09:06:36;;;;;;;9.48;8.15;;;;;;;45.80;13.83;98763.94;5105491;27;20061;-70
2023/08/28 09:09:05;;;;;;;8.82;8.07;;;;;;;46.58;13.48;98765.81;5080573;27;20053;-71
2023/08/28 09:11:31;;;;;;;9.20;8.27;;;;;;;45.69;13.31;98769.28;5115715;27;20043;-70
2023/08/28 09:13:56;;;;;;;9.32;8.13;;;;;;;44.75;13.74;98775.47;5096795;27;20046;-69
2023/08/28 09:16:21;;;;;;;11.70;7.72;;;;;;;43.98;14.05;98760.56;5096584;27;20046;-70
2023/08/28 09:18:49;;;;;;;8.82;7.57;;;;;;;43.05;14.01;98764.06;5115781;27;20045;-70
2023/08/28 09:21:14;;;;;;;8.68;7.40;;;;;;;43.30;14.43;98756.56;5115692;27;20035;-70
2023/08/28 09:23:45;;;;;;;15.38;7.40;;;;;;;43.29;14.17;98758.56;5098794;27;20496;-71
2023/08/28 09:26:15;;;;;;;9.27;7.68;;;;;;;43.44;14.92;98763.50;5101168;27;20051;-71
2023/08/28 09:28:41;;;;;;;7.85;7.15;;;;;;;43.03;14.86;98764.41;5120019;27;20061;-72
2023/08/28 09:31:06;;;;;;;7.35;6.75;;;;;;;42.43;14.90;98766.88;5119820;27;20401;-71
2023/08/28 09:33:44;;;;;;;8.63;7.82;;;;;;;42.10;15.46;98766.75;5101721;27;20042;-71
2023/08/28 09:36:18;;;;;;;8.13;6.57;;;;;;;41.29;16.21;98773.28;5119816;27;20051;-72
2023/08/28 09:38:44;;;;;;;7.47;6.88;;;;;;;40.27;17.02;98764.50;5119730;27;20412;-69
2023/08/28 09:41:10;;;;;;;7.25;6.47;;;;;;;39.47;17.10;98774.84;5119968;27;20035;-70
2023/08/28 09:43:35;;;;;;;7.95;6.57;;;;;;;38.89;17.41;98774.09;5119466;27;20042;-71
2023/08/28 09:46:02;;;;;;;7.32;6.63;;;;;;;38.43;17.75;98767.59;5119272;27;20039;-71
2023/08/28 09:48:32;;;;;;;6.65;6.05;;;;;;;37.74;18.88;98777.94;5119493;27;20408;-71
2023/08/28 09:51:02;;;;;;;6.63;5.68;;;;;;;36.41;20.11;98774.84;5117194;27;20047;-72
2023/08/28 09:53:30;;;;;;;6.38;5.78;;;;;;;34.89;21.64;98768.97;5075647;27;20038;-71
2023/08/28 09:55:55;;;;;;;11.77;6.22;;;;;;;33.58;22.84;98764.88;5092298;27;20051;-70
2023/08/28 09:58:30;;;;;;;11.15;5.57;;;;;;;33.19;23.96;98773.75;5128039;27;20043;-70
2023/08/28 10:00:57;;;;;;;6.82;5.68;;;;;;;33.07;23.99;98769.63;5121930;27;20050;-70
2023/08/28 10:03:24;;;;;;;8.50;5.55;;;;;;;32.63;24.36;98769.28;5081265;27;20049;-70
2023/08/28 10:05:52;;;;;;;7.78;6.05;;;;;;;32.16;24.48;98797.84;5102062;27;20053;-70
2023/08/28 10:08:17;;;;;;;6.60;5.50;;;;;;;32.62;24.97;98779.50;5100690;27;20053;-70
2023/08/28 10:10:47;;;;;;;6.60;5.00;;;;;;;32.72;24.58;98775.97;5118281;27;20416;-71
2023/08/28 10:13:20;;;;;;;6.07;5.18;;;;;;;32.32;24.74;98779.44;5118615;27;20523;-71
2023/08/28 10:16:04;;;;;;;10.27;5.40;;;;;;;31.92;25.42;98774.59;5070962;27;20047;-70
2023/08/28 10:18:40;;;;;;;6.55;5.35;;;;;;;31.03;26.34;98773.44;5100873;27;20050;-70
2023/08/28 10:21:07;;;;;;;6.65;5.60;;;;;;;29.96;26.92;98762.41;5118701;27;20035;-71
2023/08/28 10:23:34;;;;;;;7.60;5.70;;;;;;;29.07;27.43;98786.34;5118975;27;20050;-71
2023/08/28 10:26:01;;;;;;;11.43;6.13;;;;;;;28.21;29.08;98777.41;5116302;27;20527;-70
2023/08/28 10:28:28;;;;;;;6.50;5.32;;;;;;;27.63;29.44;98756.44;5118671;27;20046;-70
2023/08/28 10:30:54;;;;;;;7.03;5.95;;;;;;;27.06;29.96;98778.09;5098262;27;20042;-72
2023/08/28 10:33:22;;;;;;;7.57;6.28;;;;;;;26.67;30.63;98781.44;5097581;27;20058;-71
2023/08/28 10:35:52;;;;;;;6.07;4.97;;;;;;;26.49;31.52;98789.72;5098646;27;20057;-72
2023/08/28 10:38:20;;;;;;;9.30;6.03;;;;;;;26.23;31.84;98796.34;5118543;27;20035;-72
2023/08/28 10:40:48;;;;;;;7.65;5.20;;;;;;;26.03;32.05;98789.25;5082291;27;20057;-72
2023/08/28 10:43:13;;;;;;;9.27;5.13;;;;;;;25.71;31.73;98773.28;5114819;27;20105;-73
2023/08/28 10:45:40;;;;;;;7.20;5.22;;;;;;;25.40;32.48;98799.59;5117100;27;20061;-72
2023/08/28 10:48:06;;;;;;;7.60;5.25;;;;;;;25.05;32.59;98780.22;5099005;27;20054;-71
2023/08/28 10:50:38;;;;;;;8.07;5.40;;;;;;;24.81;33.23;98779.16;5096172;27;20053;-70
2023/08/28 10:53:04;;;;;;;9.50;5.60;;;;;;;24.58;34.32;98787.06;5098466;27;20065;-71
2023/08/28 10:55:29;;;;;;;8.70;4.95;;;;;;;24.42;34.75;98787.59;5117726;27;20464;-72
2023/08/28 10:57:59;;;;;;;8.45;5.78;;;;;;;24.37;35.51;98790.16;5095614;27;20034;-71
2023/08/28 11:00:25;;;;;;;6.78;5.63;;;;;;;24.31;35.15;98791.00;5098295;27;20053;-70
2023/08/28 11:03:10;;;;;;;7.25;5.45;;;;;;;24.32;35.70;98787.22;5098684;27;20058;-71
2023/08/28 11:05:38;;;;;;;12.13;6.05;;;;;;;24.07;36.07;98789.84;5097115;27;20042;-71
2023/08/28 11:08:04;;;;;;;7.18;5.47;;;;;;;23.83;36.56;98792.25;5095404;27;20542;-71
2023/08/28 11:10:31;;;;;;;7.97;5.32;;;;;;;23.82;36.81;98795.19;5088946;27;20047;-70
2023/08/28 11:13:05;;;;;;;10.63;6.18;;;;;;;23.75;36.46;98797.94;5081507;27;20043;-73
2023/08/28 11:15:34;;;;;;;8.32;6.50;;;;;;;23.74;36.43;98779.94;5078572;27;20058;-73
2023/08/28 11:18:23;;;;;;;9.18;5.85;;;;;;;23.80;36.40;98783.69;5097438;27;20039;-72
2023/08/28 11:20:55;;;;;;;7.95;5.75;;;;;;;23.67;37.68;98783.72;5109588;27;20042;-72
2023/08/28 11:23:34;;;;;;;8.02;5.53;;;;;;;23.69;37.81;98781.63;5099797;27;20030;-72
2023/08/28 11:26:03;;;;;;;9.93;5.20;;;;;;;23.57;38.12;98786.06;5099102;27;20051;-72